createdAt,value
2018-11-29T17:13:19.690Z,3.9
2018-11-29T17:14:19.658Z,6.6
2018-11-29T17:15:19.606Z,3.9
2018-11-29T17:16:19.668Z,3.9
2018-11-29T17:17:19.655Z,3.9
2018-11-29T17:18:19.662Z,1.8
2018-11-29T17:19:19.613Z,0
2018-11-29T17:20:19.709Z,1.8
2018-11-29T17:21:19.631Z,1.8
2018-11-29T17:22:19.660Z,0
2018-11-29T17:23:19.632Z,0
2018-11-29T17:24:20.234Z,0
2018-11-29T17:25:19.584Z,0
2018-11-29T17:26:19.639Z,0
2018-11-29T17:27:19.634Z,0
2018-11-29T17:28:19.615Z,0
2018-11-29T17:29:19.586Z,0
2018-11-29T17:30:19.590Z,3.9
2018-11-29T17:31:19.679Z,3.9
2018-11-29T17:32:19.600Z,1.8
2018-11-29T17:33:19.624Z,6.6
2018-11-29T17:34:19.592Z,9.5
2018-11-29T17:35:19.598Z,9.5
2018-11-29T17:36:19.711Z,6.6
2018-11-29T17:37:19.622Z,6.6
2018-11-29T17:38:19.651Z,9.5
2018-11-29T17:39:19.722Z,12.4
2018-11-29T17:40:19.618Z,12.4
2018-11-29T17:41:22.227Z,9.5
2018-11-29T17:42:22.359Z,6.6
2018-11-29T17:43:21.561Z,6.6
2018-11-29T17:44:22.226Z,9.5
2018-11-29T17:45:22.503Z,9.5
2018-11-29T17:46:21.877Z,3.9
2018-11-29T17:47:22.291Z,6.6
2018-11-29T17:48:23.578Z,6.6
2018-11-29T17:49:21.839Z,3.9
2018-11-29T17:50:22.553Z,3.9
2018-11-29T17:51:21.781Z,3.9
2018-11-29T17:52:22.454Z,6.6
2018-11-29T17:53:23.407Z,9.5
2018-11-29T17:54:22.246Z,12.4
2018-11-29T17:55:23.714Z,9.5
2018-11-29T17:56:23.345Z,9.5
2018-11-29T17:57:21.968Z,12.4
2018-11-29T17:58:23.046Z,12.4
2018-11-29T17:59:22.082Z,6.6
2018-11-29T18:00:22.265Z,9.5
2018-11-29T18:01:22.203Z,9.5
2018-11-29T18:02:23.584Z,6.6
2018-11-29T18:03:21.875Z,3.9
2018-11-29T18:04:22.273Z,6.6
2018-11-29T18:05:22.499Z,3.9
2018-11-29T18:06:24.629Z,3.9
2018-11-29T18:07:24.156Z,3.9
2018-11-29T18:08:22.929Z,3.9
2018-11-29T18:09:22.641Z,6.6
2018-11-29T18:10:22.511Z,6.6
2018-11-29T18:11:23.565Z,3.9
2018-11-29T18:12:22.616Z,12.4
2018-11-29T18:13:22.920Z,9.5
2018-11-29T18:14:22.438Z,9.5
2018-11-29T18:15:22.480Z,18.3
2018-11-29T18:16:22.620Z,18.3
2018-11-29T18:17:22.404Z,15.4
2018-11-29T18:18:23.991Z,15.4
2018-11-29T18:19:21.564Z,21.3
2018-11-29T18:20:22.450Z,15.4
2018-11-29T18:21:22.317Z,15.4
2018-11-29T18:22:22.366Z,18.3
2018-11-29T18:23:22.525Z,15.4
2018-11-29T18:24:22.534Z,21.3
2018-11-29T18:25:22.135Z,15.4
2018-11-29T18:26:22.280Z,12.4
2018-11-29T18:27:22.154Z,12.4
2018-11-29T18:28:22.639Z,9.5
2018-11-29T18:29:23.075Z,6.6
2018-11-29T18:30:22.338Z,9.5
2018-11-29T18:31:22.610Z,6.6
2018-11-29T18:32:22.569Z,9.5
2018-11-29T18:33:22.167Z,18.3
2018-11-29T18:34:22.451Z,18.3
2018-11-29T18:36:22.235Z,12.4
2018-11-29T18:37:22.222Z,9.5
2018-11-29T18:38:22.208Z,9.5
2018-11-29T18:39:22.191Z,12.4
2018-11-29T18:40:22.170Z,3.9
2018-11-29T18:41:22.321Z,9.5
2018-11-29T18:42:22.178Z,6.6
2018-11-29T18:43:22.222Z,3.9
2018-11-29T18:44:22.217Z,1.8
2018-11-29T18:45:22.187Z,1.8
2018-11-29T18:46:22.366Z,3.9
2018-11-29T18:47:22.167Z,6.6
2018-11-29T18:48:22.318Z,6.6
2018-11-29T18:49:22.166Z,3.9
2018-11-29T18:50:22.276Z,3.9
2018-11-29T18:51:22.158Z,6.6
2018-11-29T18:52:22.166Z,9.5
2018-11-29T18:53:22.181Z,9.5
2018-11-29T18:54:22.174Z,12.4
2018-11-29T18:55:22.279Z,18.3
2018-11-29T18:56:22.156Z,15.4
2018-11-29T18:58:24.250Z,24.3
2018-11-29T18:59:24.279Z,18.3
2018-11-29T19:00:24.298Z,15.4
2018-11-29T19:01:24.229Z,12.4
2018-11-29T19:02:26.283Z,6.6
2018-11-29T19:03:24.236Z,9.5
2018-11-29T19:04:24.232Z,15.4
2018-11-29T19:05:24.307Z,21.3
2018-11-29T19:06:24.225Z,18.3
2018-11-29T19:07:24.259Z,21.3
2018-11-29T19:08:24.240Z,18.3
2018-11-29T19:09:24.230Z,18.3
2018-11-29T19:10:24.253Z,24.3
2018-11-29T19:11:24.386Z,21.3
2018-11-29T19:12:24.246Z,24.3
2018-11-29T19:13:24.274Z,24.3
2018-11-29T19:14:24.220Z,39.3
2018-11-29T19:15:24.239Z,36.3
2018-11-29T19:16:24.237Z,24.3
2018-11-29T19:17:26.347Z,24.3
2018-11-29T19:18:24.167Z,30.3
2018-11-29T19:19:24.202Z,15.4
2018-11-29T19:20:24.226Z,21.3
2018-11-29T19:21:24.305Z,18.3
2018-11-29T19:22:24.205Z,21.3
2018-11-29T19:23:24.226Z,24.3
2018-11-29T19:24:24.232Z,18.3
2018-11-29T19:25:24.225Z,12.4
2018-11-29T19:26:24.248Z,15.4
2018-11-29T19:27:24.264Z,18.3
2018-11-29T19:28:24.238Z,18.3
2018-11-29T19:29:24.260Z,12.4
2018-11-29T19:30:24.211Z,9.5
2018-11-29T19:31:24.192Z,1.8
2018-11-29T19:32:24.192Z,1.8
2018-11-29T19:33:24.280Z,0
2018-11-29T19:34:24.449Z,0
2018-11-29T19:35:24.417Z,0
2018-11-29T19:36:24.267Z,0
2018-11-29T19:37:24.211Z,0
2018-11-29T19:38:24.219Z,0
2018-11-29T19:39:24.482Z,0
2018-11-29T19:40:24.270Z,0
2018-11-29T19:41:24.243Z,0
2018-11-29T19:42:24.155Z,0
2018-11-29T19:43:24.255Z,0
2018-11-29T19:44:24.234Z,0
2018-11-29T19:45:24.306Z,0
2018-11-29T19:46:24.180Z,0
2018-11-29T19:47:24.208Z,0
2018-11-29T19:48:24.533Z,6.6
2018-11-29T19:49:24.183Z,24.3
2018-11-29T19:50:24.186Z,24.3
2018-11-29T19:51:24.168Z,21.3
2018-11-29T19:52:24.184Z,21.3
2018-11-29T19:53:24.252Z,18.3
2018-11-29T19:54:24.178Z,15.4
2018-11-29T19:55:24.200Z,15.4
2018-11-29T19:56:24.302Z,24.3
2018-11-29T19:57:24.356Z,30.3
2018-11-29T19:58:24.157Z,33.3
2018-11-29T19:59:24.183Z,27.3
2018-11-29T20:00:24.248Z,24.3
2018-11-29T20:01:24.170Z,18.3
2018-11-29T20:02:24.255Z,24.3
2018-11-29T20:03:24.178Z,21.3
2018-11-29T20:04:24.172Z,21.3
2018-11-29T20:05:24.168Z,18.3
2018-11-29T20:06:24.162Z,18.3
2018-11-29T20:07:24.238Z,18.3
2018-11-29T20:08:24.135Z,18.3
2018-11-29T20:09:24.287Z,18.3
2018-11-29T20:10:24.180Z,18.3
2018-11-29T20:11:24.185Z,15.4
2018-11-29T20:12:24.246Z,18.3
2018-11-29T20:13:24.202Z,18.3
2018-11-29T20:14:24.339Z,15.4
2018-11-29T20:15:24.217Z,18.3
2018-11-29T20:16:24.264Z,18.3
2018-11-29T20:17:24.188Z,18.3
2018-11-29T20:18:24.324Z,15.4
2018-11-29T20:19:24.174Z,15.4
2018-11-29T20:20:24.171Z,3.9
2018-11-29T20:21:24.198Z,6.6
2018-11-29T20:22:24.172Z,6.6
2018-11-29T20:23:24.278Z,6.6
2018-11-29T20:24:24.192Z,3.9
2018-11-29T20:25:24.199Z,1.8
2018-11-29T20:26:24.193Z,3.9
2018-11-29T20:27:24.259Z,3.9
2018-11-29T20:28:24.185Z,6.6
2018-11-29T20:29:24.248Z,3.9
2018-11-29T20:30:24.195Z,3.9
2018-11-29T20:31:40.494Z,3.9
2018-11-29T20:32:25.731Z,6.6
2018-11-29T20:33:24.179Z,3.9
2018-11-29T20:34:24.180Z,3.9
2018-11-29T20:35:24.651Z,3.9
2018-11-29T20:36:24.153Z,6.6
2018-11-29T20:37:24.211Z,0
2018-11-29T20:38:24.506Z,0
2018-11-29T20:39:24.216Z,0
2018-11-29T20:40:24.214Z,0
2018-11-29T20:41:24.150Z,0
2018-11-29T20:42:24.142Z,0
2018-11-29T20:43:24.261Z,0
2018-11-29T20:44:24.177Z,0
2018-11-29T20:45:24.195Z,0
2018-11-29T20:46:24.176Z,0
2018-11-29T20:47:24.331Z,6.6
2018-11-29T20:48:24.183Z,6.6
2018-11-29T20:49:24.182Z,6.6
2018-11-29T20:50:24.173Z,3.9
2018-11-29T20:51:24.173Z,6.6
2018-11-29T20:52:24.196Z,3.9
2018-11-29T20:53:24.239Z,1.8
2018-11-29T20:54:24.165Z,6.6
2018-11-29T20:55:24.175Z,6.6
2018-11-29T20:56:24.162Z,3.9
2018-11-29T20:57:24.235Z,6.6
2018-11-29T20:58:24.166Z,3.9
2018-11-29T20:59:24.132Z,0
2018-11-29T21:00:24.199Z,0
2018-11-29T21:01:24.142Z,0
2018-11-29T21:02:24.524Z,0
2018-11-29T21:03:24.145Z,0
2018-11-29T21:04:24.178Z,3.9
2018-11-29T21:05:24.405Z,6.6
2018-11-29T21:06:24.209Z,6.6
2018-11-29T21:07:25.092Z,3.9
2018-11-29T21:08:24.304Z,3.9
2018-11-29T21:09:24.253Z,1.8
2018-11-29T21:10:24.176Z,0
2018-11-29T21:11:27.550Z,0
2018-11-29T21:12:24.118Z,0
2018-11-29T21:13:27.937Z,0
2018-11-29T21:14:24.355Z,1.8
2018-11-29T21:15:24.258Z,0
2018-11-29T21:16:24.164Z,0
2018-11-29T21:17:24.309Z,0
2018-11-29T21:18:24.251Z,0
2018-11-29T21:19:24.347Z,1.8
2018-11-29T21:20:24.265Z,3.9
2018-11-29T21:21:24.274Z,1.8
2018-11-29T21:22:26.889Z,0
2018-11-29T21:23:26.606Z,0
2018-11-29T21:24:26.982Z,0
2018-11-29T21:25:24.172Z,0
2018-11-29T21:26:24.181Z,0
2018-11-29T21:27:26.141Z,0
2018-11-29T21:28:24.912Z,0
2018-11-29T21:29:25.719Z,0
2018-11-29T21:30:24.496Z,0
2018-11-29T21:31:24.333Z,0
2018-11-29T21:32:24.234Z,0
2018-11-29T21:33:24.468Z,0
2018-11-29T21:34:24.987Z,0
2018-11-29T21:35:24.185Z,0
2018-11-29T21:36:24.144Z,6.6
2018-11-29T21:37:24.410Z,9.5
2018-11-29T21:38:24.360Z,9.5
2018-11-29T21:39:27.833Z,6.6
2018-11-29T21:40:24.967Z,3.9
2018-11-29T21:41:24.255Z,6.6
2018-11-29T21:42:24.167Z,9.5
2018-11-29T21:43:24.320Z,12.4
2018-11-29T21:44:24.315Z,15.4
2018-11-29T21:45:24.296Z,12.4
2018-11-29T21:46:24.245Z,12.4
2018-11-29T21:47:25.945Z,9.5
2018-11-29T21:48:24.276Z,9.5
2018-11-29T21:49:24.212Z,12.4
2018-11-29T21:50:24.266Z,3.9
2018-11-29T21:51:24.281Z,1.8
2018-11-29T21:52:24.232Z,0
2018-11-29T21:53:24.294Z,1.8
2018-11-29T21:54:24.248Z,0
2018-11-29T21:55:24.239Z,0
2018-11-29T21:56:24.284Z,1.8
2018-11-29T21:57:24.389Z,6.6
2018-11-29T21:58:27.382Z,9.5
2018-11-29T21:59:24.203Z,12.4
2018-11-29T22:00:24.269Z,15.4
2018-11-29T22:01:24.331Z,12.4
2018-11-29T22:02:24.267Z,12.4
2018-11-29T22:03:24.251Z,9.5
2018-11-29T22:04:24.218Z,18.3
2018-11-29T22:05:24.270Z,27.3
2018-11-29T22:06:24.363Z,27.3
2018-11-29T22:07:24.261Z,27.3
2018-11-29T22:08:27.318Z,27.3
2018-11-29T22:09:24.258Z,24.3
2018-11-29T22:10:24.764Z,15.4
2018-11-29T22:11:24.390Z,6.6
2018-11-29T22:12:24.266Z,12.4
2018-11-29T22:13:24.230Z,9.5
2018-11-29T22:14:24.299Z,3.9
2018-11-29T22:15:24.442Z,3.9
2018-11-29T22:16:24.257Z,6.6
2018-11-29T22:17:24.248Z,1.8
2018-11-29T22:18:24.170Z,3.9
2018-11-29T22:19:24.307Z,6.6
2018-11-29T22:20:24.176Z,6.6
2018-11-29T22:21:24.328Z,6.6
2018-11-29T22:22:28.218Z,6.6
2018-11-29T22:23:25.157Z,3.9
2018-11-29T22:24:26.314Z,3.9
2018-11-29T22:25:24.182Z,1.8
2018-11-29T22:26:27.103Z,3.9
2018-11-29T22:27:24.846Z,3.9
2018-11-29T22:28:25.901Z,1.8
2018-11-29T22:29:25.652Z,0
2018-11-29T22:30:27.127Z,3.9
2018-11-29T22:31:24.702Z,3.9
2018-11-29T22:32:25.527Z,3.9
2018-11-29T22:33:25.081Z,3.9
2018-11-29T22:34:24.499Z,1.8
2018-11-29T22:35:26.133Z,3.9
2018-11-29T22:36:25.195Z,1.8
2018-11-29T22:37:27.134Z,6.6
2018-11-29T22:38:25.959Z,3.9
2018-11-29T22:39:25.447Z,3.9
2018-11-29T22:40:27.318Z,3.9
2018-11-29T22:41:26.736Z,6.6
2018-11-29T22:42:26.259Z,3.9
2018-11-29T22:43:26.268Z,6.6
2018-11-29T22:44:25.897Z,3.9
2018-11-29T22:45:25.489Z,3.9
2018-11-29T22:46:27.238Z,0
2018-11-29T22:47:24.176Z,0
2018-11-29T22:48:26.954Z,0
2018-11-29T22:49:26.500Z,1.8
2018-11-29T22:50:25.095Z,1.8
2018-11-29T22:51:25.377Z,0
2018-11-29T22:52:26.166Z,0
2018-11-29T22:53:24.452Z,1.8
2018-11-29T22:54:25.699Z,1.8
2018-11-29T22:55:25.077Z,0
2018-11-29T22:56:24.065Z,0
2018-11-29T22:57:24.082Z,0
2018-11-29T22:58:24.129Z,0
2018-11-29T22:59:24.163Z,0
2018-11-29T23:00:24.102Z,0
2018-11-29T23:01:24.103Z,1.8
2018-11-29T23:02:24.125Z,0
2018-11-29T23:03:24.102Z,0
2018-11-29T23:04:24.162Z,6.6
2018-11-29T23:05:24.099Z,6.6
2018-11-29T23:06:24.125Z,6.6
2018-11-29T23:07:24.170Z,6.6
2018-11-29T23:08:24.120Z,6.6
2018-11-29T23:09:24.145Z,3.9
2018-11-29T23:10:24.174Z,3.9
2018-11-29T23:11:24.121Z,1.8
2018-11-29T23:12:24.112Z,1.8
2018-11-29T23:13:24.121Z,0
2018-11-29T23:14:24.115Z,0
2018-11-29T23:15:24.160Z,0
2018-11-29T23:16:24.181Z,0
2018-11-29T23:17:24.143Z,0
2018-11-29T23:18:24.156Z,1.8
2018-11-29T23:19:24.177Z,0
2018-11-29T23:20:24.099Z,0
2018-11-29T23:21:24.200Z,0
2018-11-29T23:22:24.096Z,0
2018-11-29T23:23:24.176Z,0
2018-11-29T23:24:24.119Z,0
2018-11-29T23:25:24.118Z,3.9
2018-11-29T23:26:24.158Z,12.4
2018-11-29T23:27:24.108Z,15.4
2018-11-29T23:28:24.108Z,21.3
2018-11-29T23:29:24.192Z,24.3
2018-11-29T23:30:24.120Z,30.3
2018-11-29T23:31:24.067Z,36.3
2018-11-29T23:32:24.104Z,30.3
2018-11-29T23:33:24.098Z,24.3
2018-11-29T23:34:24.156Z,30.3
2018-11-29T23:35:24.112Z,18.3
2018-11-29T23:36:24.098Z,21.3
2018-11-29T23:37:24.062Z,15.4
2018-11-29T23:38:24.106Z,18.3
2018-11-29T23:39:24.175Z,18.3
2018-11-29T23:40:24.106Z,33.3
2018-11-29T23:41:24.147Z,39.3
2018-11-29T23:42:24.215Z,33.3
2018-11-29T23:43:24.100Z,33.3
2018-11-29T23:44:24.102Z,36.3
2018-11-29T23:45:24.092Z,33.3
2018-11-29T23:46:24.124Z,33.3
2018-11-29T23:47:24.074Z,30.3
2018-11-29T23:48:24.092Z,36.3
2018-11-29T23:49:24.109Z,33.3
2018-11-29T23:50:24.175Z,33.3
2018-11-29T23:51:24.106Z,27.3
2018-11-29T23:52:24.097Z,36.3
2018-11-29T23:53:24.060Z,36.3
2018-11-29T23:54:24.146Z,30.3
2018-11-29T23:55:24.212Z,39.3
2018-11-29T23:56:24.113Z,24.3
2018-11-29T23:57:24.173Z,45.3
2018-11-29T23:58:24.058Z,45.3
2018-11-29T23:59:24.145Z,51.3
